createdAt,value
2018-06-10T00:00:34.135Z,99.99
2018-06-10T00:01:34.121Z,99.99
2018-06-10T00:02:34.107Z,99.99
2018-06-10T00:03:34.093Z,99.99
2018-06-10T00:04:34.079Z,99.99
2018-06-10T00:05:34.067Z,99.99
2018-06-10T00:06:34.054Z,99.99
2018-06-10T00:07:34.036Z,99.99
2018-06-10T00:08:34.028Z,99.99
2018-06-10T00:09:34.024Z,99.99
2018-06-10T00:10:34.003Z,99.99
2018-06-10T00:11:33.988Z,99.99
2018-06-10T00:12:33.978Z,99.99
2018-06-10T00:13:33.962Z,99.99
2018-06-10T00:14:33.951Z,99.99
2018-06-10T00:15:33.937Z,99.99
2018-06-10T00:16:33.921Z,99.99
2018-06-10T00:17:33.911Z,99.99
2018-06-10T00:18:33.891Z,99.99
2018-06-10T00:19:33.884Z,99.99
2018-06-10T00:20:33.869Z,99.99
2018-06-10T00:21:33.862Z,99.99
2018-06-10T00:22:33.840Z,99.99
2018-06-10T00:23:33.824Z,99.99
2018-06-10T00:24:33.816Z,99.99
2018-06-10T00:25:33.796Z,99.99
2018-06-10T00:26:33.784Z,99.99
2018-06-10T00:27:33.775Z,99.99
2018-06-10T00:28:33.760Z,99.99
2018-06-10T00:29:33.744Z,99.99
2018-06-10T00:30:33.737Z,99.99
2018-06-10T00:31:33.722Z,99.99
2018-06-10T00:32:33.703Z,99.99
2018-06-10T00:33:33.704Z,99.99
2018-06-10T00:34:33.681Z,99.99
2018-06-10T00:35:33.678Z,99.99
2018-06-10T00:36:33.653Z,99.99
2018-06-10T00:37:33.648Z,99.99
2018-06-10T00:38:33.621Z,99.99
2018-06-10T00:39:33.616Z,99.99
2018-06-10T00:40:33.600Z,99.99
2018-06-10T00:41:33.593Z,99.99
2018-06-10T00:42:33.572Z,99.99
2018-06-10T00:43:33.557Z,99.99
2018-06-10T00:44:33.545Z,99.99
2018-06-10T00:45:33.535Z,99.99
2018-06-10T00:46:33.519Z,99.99
2018-06-10T00:47:33.504Z,99.99
2018-06-10T00:48:33.489Z,99.99
2018-06-10T00:49:33.477Z,99.99
2018-06-10T00:50:33.466Z,99.99
2018-06-10T00:51:33.450Z,99.99
2018-06-10T00:52:33.436Z,99.99
2018-06-10T00:53:33.422Z,99.99
2018-06-10T00:54:33.407Z,99.99
2018-06-10T00:55:33.387Z,99.99
2018-06-10T00:56:33.377Z,99.99
2018-06-10T00:57:33.368Z,99.99
2018-06-10T00:58:33.355Z,99.99
2018-06-10T00:59:33.342Z,99.99
2018-06-10T01:00:33.331Z,99.99
2018-06-10T01:01:33.313Z,99.99
2018-06-10T01:02:33.295Z,99.99
2018-06-10T01:03:33.282Z,99.99
2018-06-10T01:04:33.286Z,99.99
2018-06-10T01:05:33.277Z,99.99
2018-06-10T01:06:33.240Z,99.99
2018-06-10T01:07:33.228Z,99.99
2018-06-10T01:08:33.209Z,99.99
2018-06-10T01:09:33.204Z,99.99
2018-06-10T01:10:33.190Z,99.99
2018-06-10T01:11:33.176Z,99.99
2018-06-10T01:12:33.160Z,99.99
2018-06-10T01:13:33.147Z,99.99
2018-06-10T01:14:33.137Z,99.99
2018-06-10T01:15:33.123Z,99.99
2018-06-10T01:16:33.107Z,99.99
2018-06-10T01:17:33.087Z,99.99
2018-06-10T01:18:33.076Z,99.99
2018-06-10T01:19:33.062Z,99.99
2018-06-10T01:20:33.051Z,99.99
2018-06-10T01:21:33.034Z,99.99
2018-06-10T01:22:33.036Z,99.99
2018-06-10T01:23:33.005Z,99.99
2018-06-10T01:24:32.991Z,99.99
2018-06-10T01:25:32.978Z,99.99
2018-06-10T01:26:32.966Z,99.99
2018-06-10T01:27:32.950Z,99.99
2018-06-10T01:28:32.938Z,99.99
2018-06-10T01:29:32.920Z,99.99
2018-06-10T01:30:32.910Z,99.99
2018-06-10T01:31:32.893Z,99.99
2018-06-10T01:32:32.878Z,99.99
2018-06-10T01:33:32.867Z,99.99
2018-06-10T01:34:32.849Z,99.99
2018-06-10T01:35:32.839Z,99.99
2018-06-10T01:36:32.822Z,99.99
2018-06-10T01:37:32.806Z,99.99
2018-06-10T01:38:32.792Z,99.99
2018-06-10T01:39:32.778Z,99.99
2018-06-10T01:40:32.769Z,99.99
2018-06-10T01:41:32.748Z,99.99
2018-06-10T01:42:32.734Z,99.99
2018-06-10T01:43:32.721Z,99.99
2018-06-10T01:44:32.706Z,99.99
2018-06-10T01:45:32.688Z,99.99
2018-06-10T01:46:32.679Z,99.99
2018-06-10T01:47:32.664Z,99.99
2018-06-10T01:48:32.651Z,99.99
2018-06-10T01:49:32.635Z,99.99
2018-06-10T01:50:32.621Z,99.99
2018-06-10T01:51:32.607Z,99.99
2018-06-10T01:52:32.589Z,99.99
2018-06-10T01:53:32.579Z,99.99
2018-06-10T01:54:32.563Z,99.99
2018-06-10T01:55:32.561Z,99.99
2018-06-10T01:56:32.547Z,99.99
2018-06-10T01:57:32.522Z,99.99
2018-06-10T01:58:32.506Z,99.99
2018-06-10T01:59:32.494Z,99.99
2018-06-10T02:00:32.478Z,99.99
2018-06-10T02:01:32.463Z,99.99
2018-06-10T02:02:32.449Z,99.99
2018-06-10T02:03:32.433Z,99.99
2018-06-10T02:04:32.418Z,99.99
2018-06-10T02:05:32.409Z,99.99
2018-06-10T02:06:32.392Z,99.99
2018-06-10T02:07:32.374Z,99.99
2018-06-10T02:08:32.361Z,99.99
2018-06-10T02:09:32.347Z,99.99
2018-06-10T02:10:32.332Z,99.99
2018-06-10T02:11:32.318Z,99.99
2018-06-10T02:12:32.301Z,99.99
2018-06-10T02:13:32.287Z,99.99
2018-06-10T02:14:32.268Z,99.99
2018-06-10T02:15:32.259Z,99.99
2018-06-10T02:16:32.244Z,99.99
2018-06-10T02:17:32.229Z,99.99
2018-06-10T02:18:32.219Z,99.99
2018-06-10T02:19:32.204Z,99.99
2018-06-10T02:20:32.180Z,99.99
2018-06-10T02:21:32.179Z,99.99
2018-06-10T02:22:32.155Z,99.99
2018-06-10T02:23:32.160Z,99.99
2018-06-10T02:24:32.129Z,99.99
2018-06-10T02:25:32.109Z,99.99
2018-06-10T02:26:32.094Z,99.99
2018-06-10T02:27:32.086Z,99.99
2018-06-10T02:28:32.072Z,99.99
2018-06-10T02:29:32.051Z,99.99
2018-06-10T02:30:32.055Z,99.99
2018-06-10T02:31:32.025Z,99.99
2018-06-10T02:32:32.004Z,99.99
2018-06-10T02:33:31.991Z,99.99
2018-06-10T02:34:31.990Z,99.99
2018-06-10T02:35:31.969Z,99.99
2018-06-10T02:36:31.948Z,99.99
2018-06-10T02:37:31.932Z,99.99
2018-06-10T02:38:31.942Z,99.99
2018-06-10T02:39:31.902Z,99.99
2018-06-10T02:40:31.895Z,99.99
2018-06-10T02:41:31.881Z,99.99
2018-06-10T02:42:31.877Z,99.99
2018-06-10T02:43:31.859Z,99.99
2018-06-10T02:44:31.840Z,99.99
2018-06-10T02:45:31.827Z,99.99
2018-06-10T02:46:31.816Z,99.99
2018-06-10T02:47:31.804Z,99.99
2018-06-10T02:48:31.779Z,99.99
2018-06-10T02:49:31.759Z,99.99
2018-06-10T02:50:31.746Z,99.99
2018-06-10T02:51:31.740Z,99.99
2018-06-10T02:52:31.719Z,99.99
2018-06-10T02:53:31.709Z,99.99
2018-06-10T02:54:31.694Z,99.99
2018-06-10T02:55:31.677Z,99.99
2018-06-10T02:56:31.665Z,99.99
2018-06-10T02:57:31.641Z,99.99
2018-06-10T02:58:31.634Z,99.99
2018-06-10T02:59:31.613Z,99.99
2018-06-10T03:00:31.595Z,99.99
2018-06-10T03:01:31.594Z,99.99
2018-06-10T03:02:31.575Z,99.99
2018-06-10T03:03:31.561Z,99.99
2018-06-10T03:04:31.542Z,99.99
2018-06-10T03:05:31.528Z,99.99
2018-06-10T03:06:31.519Z,99.99
2018-06-10T03:07:31.500Z,99.99
2018-06-10T03:08:31.486Z,99.99
2018-06-10T03:09:31.473Z,99.99
2018-06-10T03:10:31.460Z,99.99
2018-06-10T03:11:31.448Z,99.99
2018-06-10T03:12:31.429Z,99.99
2018-06-10T03:13:31.413Z,99.99
2018-06-10T03:14:31.398Z,99.99
2018-06-10T03:15:31.384Z,99.99
2018-06-10T03:16:31.372Z,99.99
2018-06-10T03:17:31.362Z,99.99
2018-06-10T03:18:31.348Z,99.99
2018-06-10T03:19:31.329Z,99.99
2018-06-10T03:20:31.311Z,99.99
2018-06-10T03:21:31.292Z,99.99
2018-06-10T03:22:31.278Z,99.99
2018-06-10T03:23:31.262Z,99.99
2018-06-10T03:24:31.249Z,99.99
2018-06-10T03:25:31.256Z,99.99
2018-06-10T03:26:31.289Z,99.99
2018-06-10T03:27:31.212Z,99.99
2018-06-10T03:28:31.184Z,99.99
2018-06-10T03:29:31.174Z,99.99
2018-06-10T03:30:31.172Z,99.99
2018-06-10T03:31:31.148Z,99.99
2018-06-10T03:32:31.138Z,99.99
2018-06-10T03:33:31.122Z,99.99
2018-06-10T03:34:31.100Z,99.99
2018-06-10T03:35:31.085Z,99.99
2018-06-10T03:36:31.075Z,99.99
2018-06-10T03:37:31.056Z,99.99
2018-06-10T03:38:31.043Z,99.99
2018-06-10T03:39:31.034Z,99.99
2018-06-10T03:40:31.017Z,99.99
2018-06-10T03:41:31.015Z,99.99
2018-06-10T03:42:30.998Z,99.99
2018-06-10T03:43:30.976Z,99.99
2018-06-10T03:44:30.963Z,99.99
2018-06-10T03:45:30.946Z,99.99
2018-06-10T03:46:30.929Z,99.99
2018-06-10T03:47:30.916Z,99.99
2018-06-10T03:48:30.913Z,99.99
2018-06-10T03:49:30.887Z,99.99
2018-06-10T03:50:30.873Z,99.99
2018-06-10T03:51:30.857Z,99.99
2018-06-10T03:52:30.842Z,99.99
2018-06-10T03:53:30.820Z,99.99
2018-06-10T03:54:30.811Z,99.99
2018-06-10T03:55:30.795Z,99.99
2018-06-10T03:56:30.780Z,99.99
2018-06-10T03:57:30.762Z,99.99
2018-06-10T03:58:30.754Z,99.99
2018-06-10T03:59:30.737Z,99.99
2018-06-10T04:00:30.724Z,99.99
2018-06-10T04:01:30.704Z,99.99
2018-06-10T04:02:30.690Z,99.99
2018-06-10T04:03:30.678Z,99.99
2018-06-10T04:04:30.661Z,99.99
2018-06-10T04:05:30.646Z,99.99
2018-06-10T04:06:30.632Z,99.99
2018-06-10T04:07:30.627Z,99.99
2018-06-10T04:08:30.610Z,99.99
2018-06-10T04:09:30.589Z,99.99
2018-06-10T04:10:30.572Z,99.99
2018-06-10T04:11:30.558Z,99.99
2018-06-10T04:12:30.540Z,99.99
2018-06-10T04:13:30.531Z,99.99
2018-06-10T04:14:30.516Z,99.99
2018-06-10T04:15:30.500Z,99.99
2018-06-10T04:16:30.485Z,99.99
2018-06-10T04:17:30.469Z,99.99
2018-06-10T04:18:30.455Z,99.99
2018-06-10T04:19:30.441Z,99.99
2018-06-10T04:20:30.429Z,99.99
2018-06-10T04:21:30.412Z,99.99
2018-06-10T04:22:30.459Z,99.99
2018-06-10T04:23:30.387Z,99.99
2018-06-10T04:24:30.373Z,99.99
2018-06-10T04:25:30.353Z,99.99
2018-06-10T04:26:30.338Z,99.99
2018-06-10T04:27:30.324Z,99.99
2018-06-10T04:28:30.314Z,99.99
2018-06-10T04:29:30.293Z,99.99
2018-06-10T04:30:30.274Z,99.99
2018-06-10T04:31:30.265Z,99.99
2018-06-10T04:32:30.253Z,99.99
2018-06-10T04:33:30.237Z,99.99
2018-06-10T04:34:30.221Z,99.99
2018-06-10T04:35:30.208Z,99.99
2018-06-10T04:36:30.192Z,99.99
2018-06-10T04:37:30.177Z,99.99
2018-06-10T04:38:30.168Z,99.99
2018-06-10T04:39:30.150Z,99.99
2018-06-10T04:40:30.141Z,99.99
2018-06-10T04:41:30.115Z,99.99
2018-06-10T04:42:30.100Z,99.99
2018-06-10T04:43:30.093Z,99.99
2018-06-10T04:44:30.072Z,99.99
2018-06-10T04:45:30.058Z,99.99
2018-06-10T04:46:30.044Z,99.99
2018-06-10T04:47:30.037Z,99.99
2018-06-10T04:48:30.017Z,99.99
2018-06-10T04:49:30.001Z,99.99
2018-06-10T04:50:29.988Z,99.99
2018-06-10T04:51:29.968Z,99.99
2018-06-10T04:52:29.956Z,99.99
2018-06-10T04:53:29.945Z,99.99
2018-06-10T04:54:29.930Z,99.99
2018-06-10T04:55:29.909Z,99.99
2018-06-10T04:56:29.898Z,99.99
2018-06-10T04:57:29.894Z,99.99
2018-06-10T04:58:29.877Z,99.99
2018-06-10T04:59:29.858Z,99.99
2018-06-10T05:00:29.844Z,99.99
2018-06-10T05:01:29.822Z,99.99
2018-06-10T05:02:29.809Z,99.99
2018-06-10T05:03:29.804Z,99.99
2018-06-10T05:04:29.783Z,99.99
2018-06-10T05:05:29.791Z,99.99
2018-06-10T05:06:29.756Z,99.99
2018-06-10T05:07:29.748Z,99.99
2018-06-10T05:08:29.722Z,99.99
2018-06-10T05:09:29.709Z,99.99
2018-06-10T05:10:29.700Z,99.99
2018-06-10T05:11:29.678Z,99.99
2018-06-10T05:12:29.667Z,99.99
2018-06-10T05:13:29.660Z,99.99
2018-06-10T05:14:29.638Z,99.99
2018-06-10T05:15:29.637Z,99.99
2018-06-10T05:16:29.614Z,99.99
2018-06-10T05:17:29.597Z,99.99
2018-06-10T05:18:29.586Z,99.99
2018-06-10T05:19:29.570Z,99.99
2018-06-10T05:20:29.554Z,99.99
2018-06-10T05:21:29.542Z,99.99
2018-06-10T05:22:29.527Z,99.99
2018-06-10T05:23:29.512Z,99.99
2018-06-10T05:24:29.497Z,99.99
2018-06-10T05:25:29.478Z,99.99
2018-06-10T05:26:29.470Z,99.99
2018-06-10T05:27:29.457Z,99.99
2018-06-10T05:28:29.432Z,99.99
2018-06-10T05:29:29.426Z,99.99
2018-06-10T05:30:29.406Z,99.99
2018-06-10T05:31:29.395Z,99.99
2018-06-10T05:32:29.381Z,99.99
2018-06-10T05:33:29.370Z,99.99
2018-06-10T05:34:29.358Z,99.99
2018-06-10T05:35:29.343Z,99.99
2018-06-10T05:36:29.325Z,99.99
2018-06-10T05:37:29.312Z,99.99
2018-06-10T05:38:29.304Z,99.99
2018-06-10T05:39:29.292Z,99.99
2018-06-10T05:40:29.264Z,99.99
2018-06-10T05:41:29.254Z,99.99
2018-06-10T05:42:29.237Z,99.99
2018-06-10T05:43:29.217Z,99.99
2018-06-10T05:44:29.211Z,99.99
2018-06-10T05:45:29.191Z,99.99
2018-06-10T05:46:29.183Z,99.99
2018-06-10T05:47:29.165Z,99.99
2018-06-10T05:48:29.153Z,99.99
2018-06-10T05:49:29.149Z,99.99
2018-06-10T05:50:29.126Z,99.99
2018-06-10T05:51:29.112Z,99.99
2018-06-10T05:52:29.095Z,99.99
2018-06-10T05:53:29.092Z,99.99
2018-06-10T05:54:29.069Z,99.99
2018-06-10T05:55:29.051Z,99.99
2018-06-10T05:56:29.032Z,99.99
2018-06-10T05:57:29.020Z,99.99
2018-06-10T05:58:29.003Z,99.99
2018-06-10T05:59:28.990Z,99.99
2018-06-10T06:00:28.979Z,99.99
2018-06-10T06:01:28.979Z,99.99
2018-06-10T06:02:28.952Z,99.99
2018-06-10T06:03:28.939Z,99.99
2018-06-10T06:04:28.924Z,99.99
2018-06-10T06:05:28.912Z,99.99
2018-06-10T06:06:28.895Z,99.99
2018-06-10T06:07:28.884Z,99.99
2018-06-10T06:08:28.862Z,99.99
2018-06-10T06:09:28.855Z,99.99
2018-06-10T06:10:28.841Z,99.99
2018-06-10T06:11:28.826Z,99.99
2018-06-10T06:12:28.801Z,99.99
2018-06-10T06:13:28.795Z,99.99
2018-06-10T06:14:28.777Z,99.99
2018-06-10T06:15:28.772Z,99.99
2018-06-10T06:16:28.770Z,99.99
2018-06-10T06:17:28.738Z,99.99
2018-06-10T06:18:28.722Z,99.99
2018-06-10T06:19:28.713Z,99.99
2018-06-10T06:20:28.697Z,99.99
2018-06-10T06:21:28.687Z,99.99
2018-06-10T06:22:28.670Z,99.99
2018-06-10T06:23:28.656Z,99.99
2018-06-10T06:24:28.654Z,99.99
2018-06-10T06:25:28.623Z,99.99
2018-06-10T06:26:28.620Z,99.99
2018-06-10T06:27:28.664Z,99.99
2018-06-10T06:28:28.588Z,99.99
2018-06-10T06:29:28.574Z,99.99
2018-06-10T06:30:28.567Z,99.99
2018-06-10T06:31:28.555Z,99.99
2018-06-10T06:32:28.535Z,99.99
2018-06-10T06:33:28.528Z,99.99
2018-06-10T06:34:28.515Z,99.99
2018-06-10T06:35:28.493Z,99.99
2018-06-10T06:36:28.491Z,99.99
2018-06-10T06:37:28.473Z,99.99
2018-06-10T06:38:28.455Z,99.99
2018-06-10T06:39:28.455Z,99.99
2018-06-10T06:40:28.440Z,99.99
2018-06-10T06:41:28.441Z,99.99
2018-06-10T06:42:28.409Z,99.99
2018-06-10T06:43:28.402Z,99.99
2018-06-10T06:44:28.383Z,99.99
2018-06-10T06:45:28.372Z,99.99
2018-06-10T06:46:28.364Z,99.99
2018-06-10T06:47:28.351Z,99.99
2018-06-10T06:48:28.338Z,99.99
2018-06-10T06:49:28.326Z,99.99
2018-06-10T06:50:28.321Z,99.99
2018-06-10T06:51:28.302Z,99.99
2018-06-10T06:52:28.327Z,99.99
2018-06-10T06:53:28.278Z,99.99
2018-06-10T06:54:28.256Z,99.99
2018-06-10T06:55:28.250Z,99.99
2018-06-10T06:56:28.232Z,99.99
2018-06-10T06:57:28.224Z,99.99
2018-06-10T06:58:28.214Z,99.99
2018-06-10T06:59:28.202Z,99.99
2018-06-10T07:00:28.198Z,99.99
2018-06-10T07:01:28.193Z,99.99
2018-06-10T07:02:28.164Z,99.99
2018-06-10T07:03:28.161Z,99.99
2018-06-10T07:04:28.152Z,99.99
2018-06-10T07:05:28.125Z,99.99
2018-06-10T07:06:28.120Z,99.99
2018-06-10T07:07:28.106Z,99.99
2018-06-10T07:08:28.094Z,99.99
2018-06-10T07:09:28.085Z,99.99
2018-06-10T07:10:28.090Z,99.99
2018-06-10T07:11:28.057Z,99.99
2018-06-10T07:12:28.054Z,99.99
2018-06-10T07:13:28.048Z,99.99
2018-06-10T07:14:28.030Z,99.99
2018-06-10T07:15:28.019Z,99.99
2018-06-10T07:16:28.008Z,99.99
2018-06-10T07:17:27.996Z,99.99
2018-06-10T07:18:28.198Z,99.99
2018-06-10T07:19:27.984Z,99.99
2018-06-10T07:20:27.998Z,99.99
2018-06-10T07:21:27.961Z,99.99
2018-06-10T07:22:28.117Z,99.99
2018-06-10T07:23:28.195Z,99.99
2018-06-10T07:24:28.026Z,99.99
2018-06-10T07:25:27.956Z,99.99
2018-06-10T07:26:27.908Z,99.99
2018-06-10T07:27:28.068Z,99.99
2018-06-10T07:28:27.959Z,99.99
2018-06-10T07:29:27.872Z,99.99
2018-06-10T07:30:27.933Z,99.99
2018-06-10T07:31:27.830Z,99.99
2018-06-10T07:32:28.054Z,99.99
2018-06-10T07:33:27.838Z,99.99
2018-06-10T07:34:27.828Z,99.99
2018-06-10T07:35:27.785Z,99.99
2018-06-10T07:36:27.788Z,99.99
2018-06-10T07:37:27.764Z,99.99
2018-06-10T07:38:27.754Z,99.99
2018-06-10T07:39:27.874Z,99.99
2018-06-10T07:40:27.910Z,99.99
2018-06-10T07:41:28.004Z,99.99
2018-06-10T07:42:27.949Z,99.99
2018-06-10T07:43:27.871Z,99.99
2018-06-10T07:44:27.919Z,99.99
2018-06-10T07:45:27.838Z,99.99
2018-06-10T07:46:27.661Z,99.99
2018-06-10T07:47:27.640Z,99.99
2018-06-10T07:48:27.631Z,99.99
2018-06-10T07:49:27.614Z,99.99
2018-06-10T07:50:27.602Z,99.99
2018-06-10T07:51:27.590Z,99.99
2018-06-10T07:52:27.583Z,99.99
2018-06-10T07:53:27.573Z,99.99
2018-06-10T07:54:27.554Z,99.99
2018-06-10T07:55:27.546Z,99.99
2018-06-10T07:56:27.554Z,99.99
2018-06-10T07:57:27.525Z,99.99
2018-06-10T07:58:27.512Z,99.99
2018-06-10T07:59:27.502Z,99.99
2018-06-10T08:00:27.487Z,99.99
2018-06-10T08:01:27.474Z,99.99
2018-06-10T08:02:27.459Z,99.99
2018-06-10T08:03:27.454Z,99.99
2018-06-10T08:04:27.439Z,99.99
2018-06-10T08:05:27.485Z,99.99
2018-06-10T08:06:27.413Z,99.99
2018-06-10T08:07:27.407Z,99.99
2018-06-10T08:08:27.396Z,99.94
2018-06-10T08:09:27.389Z,98.97
2018-06-10T08:10:27.373Z,98.97
2018-06-10T08:11:27.364Z,98.58
2018-06-10T08:12:27.347Z,99.36
2018-06-10T08:13:27.338Z,98.15
2018-06-10T08:14:27.322Z,96.22
2018-06-10T08:15:27.319Z,96.89
2018-06-10T08:16:27.304Z,98.63
2018-06-10T08:17:27.293Z,98.35
2018-06-10T08:18:27.280Z,95.93
2018-06-10T08:19:27.272Z,94.87
2018-06-10T08:20:27.257Z,95.06
2018-06-10T08:21:27.248Z,95.25
2018-06-10T08:22:27.243Z,93.99
2018-06-10T08:23:27.229Z,95.20
2018-06-10T08:24:27.216Z,95.10
2018-06-10T08:25:27.208Z,94.28
2018-06-10T08:26:27.213Z,94.67
2018-06-10T08:27:27.185Z,93.80
2018-06-10T08:28:27.176Z,91.38
2018-06-10T08:29:27.163Z,91.48
2018-06-10T08:30:27.154Z,92.64
2018-06-10T08:31:27.145Z,92.06
2018-06-10T08:32:27.133Z,91.28
2018-06-10T08:33:27.124Z,90.61
2018-06-10T08:34:27.117Z,90.99
2018-06-10T08:35:27.105Z,90.99
2018-06-10T08:36:27.095Z,92.25
2018-06-10T08:37:27.103Z,92.79
2018-06-10T08:38:27.076Z,93.37
2018-06-10T08:39:27.065Z,94.24
2018-06-10T08:40:27.052Z,94.38
2018-06-10T08:41:27.045Z,94.09
2018-06-10T08:42:27.035Z,94.72
2018-06-10T08:43:27.025Z,95.06
2018-06-10T08:44:27.016Z,95.73
2018-06-10T08:45:27.005Z,95.54
2018-06-10T08:46:27.002Z,94.19
2018-06-10T08:47:26.987Z,95.06
2018-06-10T08:48:26.976Z,94.29
2018-06-10T08:49:26.966Z,94.38
2018-06-10T08:50:26.986Z,94.87
2018-06-10T08:51:26.948Z,94.09
2018-06-10T08:52:27.094Z,94.04
2018-06-10T08:53:27.036Z,95.30
2018-06-10T08:54:27.009Z,92.11
2018-06-10T08:55:27.008Z,90.51
2018-06-10T08:56:26.906Z,89.45
2018-06-10T08:57:27.257Z,89.97
2018-06-10T08:58:26.875Z,88.71
2018-06-10T08:59:26.872Z,89.25
2018-06-10T09:00:26.868Z,91.09
2018-06-10T09:01:26.850Z,93.17
2018-06-10T09:02:26.839Z,91.38
2018-06-10T09:03:26.846Z,90.22
2018-06-10T09:04:26.819Z,89.06
2018-06-10T09:05:26.821Z,88.53
2018-06-10T09:06:26.800Z,89.35
2018-06-10T09:07:26.790Z,89.83
2018-06-10T09:08:26.781Z,90.32
2018-06-10T09:09:26.772Z,91.14
2018-06-10T09:10:26.760Z,90.26
2018-06-10T09:11:26.754Z,88.71
2018-06-10T09:12:26.742Z,90.17
2018-06-10T09:13:26.733Z,88.13
2018-06-10T09:14:26.737Z,87.50
2018-06-10T09:15:26.718Z,87.99
2018-06-10T09:16:26.706Z,88.33
2018-06-10T09:17:26.849Z,87.85
2018-06-10T09:18:26.686Z,88.87
2018-06-10T09:19:26.677Z,90.22
2018-06-10T09:20:26.668Z,88.96
2018-06-10T09:21:26.658Z,88.67
2018-06-10T09:22:26.649Z,87.90
2018-06-10T09:23:26.641Z,88.39
2018-06-10T09:24:26.631Z,88.67
2018-06-10T09:25:26.622Z,89.83
2018-06-10T09:26:26.614Z,89.20
2018-06-10T09:27:26.604Z,87.46
2018-06-10T09:28:26.593Z,87.27
2018-06-10T09:29:26.577Z,87.95
2018-06-10T09:30:26.670Z,89.20
2018-06-10T09:31:26.570Z,88.81
2018-06-10T09:32:26.561Z,86.92
2018-06-10T09:33:26.549Z,85.18
2018-06-10T09:34:26.539Z,84.55
2018-06-10T09:35:26.731Z,84.25
2018-06-10T09:36:26.523Z,84.39
2018-06-10T09:37:26.516Z,81.58
2018-06-10T09:38:26.507Z,80.71
2018-06-10T09:39:26.492Z,81.10
2018-06-10T09:40:26.488Z,82.69
2018-06-10T09:41:26.476Z,81.13
2018-06-10T09:42:26.469Z,79.20
2018-06-10T09:43:26.464Z,79.30
2018-06-10T09:44:26.458Z,79.20
2018-06-10T09:45:26.441Z,81.04
2018-06-10T09:46:26.430Z,81.43
2018-06-10T09:47:26.430Z,80.85
2018-06-10T09:48:26.417Z,81.52
2018-06-10T09:49:26.412Z,80.80
2018-06-10T09:50:26.400Z,80.32
2018-06-10T09:51:26.566Z,80.22
2018-06-10T09:52:26.383Z,82.75
2018-06-10T09:53:26.377Z,81.58
2018-06-10T09:54:26.364Z,82.41
2018-06-10T09:55:26.416Z,81.45
2018-06-10T09:56:26.350Z,81.64
2018-06-10T09:57:26.340Z,81.45
2018-06-10T09:58:26.330Z,80.77
2018-06-10T09:59:26.316Z,79.41
2018-06-10T10:00:26.315Z,80.47
2018-06-10T10:01:26.312Z,80.87
2018-06-10T10:02:26.303Z,79.50
2018-06-10T10:03:26.303Z,80.09
2018-06-10T10:04:26.295Z,79.90
2018-06-10T10:05:26.276Z,81.21
2018-06-10T10:06:26.264Z,83.25
2018-06-10T10:07:26.255Z,82.28
2018-06-10T10:08:26.251Z,84.66
2018-06-10T10:09:26.243Z,84.66
2018-06-10T10:10:26.233Z,84.46
2018-06-10T10:11:26.228Z,83.78
2018-06-10T10:12:26.217Z,84.36
2018-06-10T10:13:26.209Z,87.85
2018-06-10T10:14:26.215Z,85.91
2018-06-10T10:15:26.192Z,86.01
2018-06-10T10:16:26.182Z,85.62
2018-06-10T10:17:26.173Z,86.20
2018-06-10T10:18:26.164Z,85.33
2018-06-10T10:19:26.158Z,86.01
2018-06-10T10:20:26.150Z,88.23
2018-06-10T10:21:26.138Z,87.65
2018-06-10T10:22:26.130Z,86.10
2018-06-10T10:23:26.128Z,86.10
2018-06-10T10:24:26.113Z,85.18
2018-06-10T10:25:26.145Z,85.03
2018-06-10T10:26:26.097Z,85.90
2018-06-10T10:27:26.089Z,85.22
2018-06-10T10:28:26.079Z,84.55
2018-06-10T10:29:26.072Z,84.74
2018-06-10T10:30:26.062Z,84.74
2018-06-10T10:31:26.054Z,84.16
2018-06-10T10:32:26.045Z,85.51
2018-06-10T10:33:26.038Z,83.38
2018-06-10T10:34:26.028Z,83.18
2018-06-10T10:35:26.021Z,82.51
2018-06-10T10:36:26.012Z,83.38
2018-06-10T10:37:26.005Z,83.77
2018-06-10T10:38:26.023Z,83.77
2018-06-10T10:39:25.987Z,84.35
2018-06-10T10:40:25.980Z,85.51
2018-06-10T10:41:25.972Z,83.48
2018-06-10T10:42:25.966Z,82.60
2018-06-10T10:43:25.956Z,82.51
2018-06-10T10:44:25.946Z,83.48
2018-06-10T10:45:25.939Z,83.00
2018-06-10T10:46:25.929Z,82.22
2018-06-10T10:47:25.922Z,82.90
2018-06-10T10:48:25.913Z,84.31
2018-06-10T10:49:25.911Z,85.28
2018-06-10T10:50:26.152Z,84.60
2018-06-10T10:51:25.897Z,81.50
2018-06-10T10:52:25.887Z,82.47
2018-06-10T10:53:25.878Z,80.67
2018-06-10T10:54:25.866Z,82.70
2018-06-10T10:55:25.856Z,82.12
2018-06-10T10:56:25.853Z,82.32
2018-06-10T10:57:25.840Z,82.90
2018-06-10T10:58:25.835Z,83.67
2018-06-10T10:59:25.826Z,84.64
2018-06-10T11:00:25.868Z,82.51
2018-06-10T11:01:25.809Z,82.32
2018-06-10T11:02:25.806Z,83.81
2018-06-10T11:03:25.793Z,81.58
2018-06-10T11:04:25.784Z,80.80
2018-06-10T11:05:25.778Z,81.62
2018-06-10T11:06:25.767Z,79.24
2018-06-10T11:07:25.766Z,78.75
2018-06-10T11:08:25.751Z,78.85
2018-06-10T11:09:25.744Z,77.14
2018-06-10T11:10:25.738Z,76.56
2018-06-10T11:11:25.732Z,77.86
2018-06-10T11:12:25.725Z,76.31
2018-06-10T11:13:25.712Z,74.11
2018-06-10T11:14:25.706Z,74.98
2018-06-10T11:15:25.700Z,76.92
2018-06-10T11:16:25.692Z,76.64
2018-06-10T11:17:25.684Z,75.53
2018-06-10T11:18:25.685Z,76.01
2018-06-10T11:19:25.670Z,74.37
2018-06-10T11:20:25.728Z,74.56
2018-06-10T11:21:25.674Z,75.14
2018-06-10T11:22:25.648Z,74.62
2018-06-10T11:23:25.641Z,75.26
2018-06-10T11:24:25.632Z,76.52
2018-06-10T11:25:25.625Z,74.87
2018-06-10T11:26:25.620Z,77.49
2018-06-10T11:27:25.615Z,78.81
2018-06-10T11:28:25.605Z,77.78
2018-06-10T11:29:25.595Z,77.29
2018-06-10T11:30:25.591Z,78.27
2018-06-10T11:31:25.585Z,79.14
2018-06-10T11:32:25.576Z,80.75
2018-06-10T11:33:25.568Z,81.18
2018-06-10T11:34:25.619Z,78.36
2018-06-10T11:35:25.557Z,75.16
2018-06-10T11:36:25.547Z,73.42
2018-06-10T11:37:25.539Z,75.36
2018-06-10T11:38:25.533Z,74.43
2018-06-10T11:39:25.528Z,74.13
2018-06-10T11:40:25.517Z,74.33
2018-06-10T11:41:25.510Z,74.04
2018-06-10T11:42:25.595Z,74.85
2018-06-10T11:43:25.498Z,75.49
2018-06-10T11:44:25.487Z,77.34
2018-06-10T11:45:25.481Z,77.82
2018-06-10T11:46:25.479Z,78.15
2018-06-10T11:47:25.469Z,77.62
2018-06-10T11:48:25.460Z,77.24
2018-06-10T11:49:25.453Z,76.60
2018-06-10T11:50:25.445Z,73.10
2018-06-10T11:51:25.440Z,73.39
2018-06-10T11:52:25.433Z,74.50
2018-06-10T11:53:25.423Z,74.37
2018-06-10T11:54:25.418Z,75.92
2018-06-10T11:55:25.411Z,78.64
2018-06-10T11:56:25.401Z,77.24
2018-06-10T11:57:25.396Z,74.91
2018-06-10T11:58:25.392Z,75.98
2018-06-10T11:59:25.384Z,75.88
2018-06-10T12:00:25.375Z,76.23
2018-06-10T12:01:25.369Z,76.17
2018-06-10T12:02:25.361Z,75.30
2018-06-10T12:03:25.356Z,76.11
2018-06-10T12:04:25.345Z,74.37
2018-06-10T12:05:25.338Z,76.34
2018-06-10T12:06:25.333Z,74.11
2018-06-10T12:07:25.326Z,74.24
2018-06-10T12:08:25.318Z,71.42
2018-06-10T12:09:25.312Z,71.52
2018-06-10T12:10:25.307Z,70.10
2018-06-10T12:11:25.299Z,70.87
2018-06-10T12:12:25.291Z,72.53
2018-06-10T12:13:25.290Z,71.33
2018-06-10T12:14:25.277Z,72.01
2018-06-10T12:15:25.272Z,71.97
2018-06-10T12:16:25.265Z,72.75
2018-06-10T12:17:25.257Z,71.97
2018-06-10T12:18:25.251Z,73.39
2018-06-10T12:19:25.253Z,74.27
2018-06-10T12:20:25.239Z,76.44
2018-06-10T12:21:25.231Z,71.97
2018-06-10T12:22:25.225Z,71.68
2018-06-10T12:23:25.220Z,72.27
2018-06-10T12:24:25.211Z,72.07
2018-06-10T12:25:25.204Z,71.39
2018-06-10T12:26:25.198Z,70.71
2018-06-10T12:27:25.194Z,72.03
2018-06-10T12:28:25.182Z,73.43
2018-06-10T12:29:25.281Z,74.60
2018-06-10T12:30:25.170Z,73.75
2018-06-10T12:31:25.162Z,72.53
2018-06-10T12:32:25.156Z,71.85
2018-06-10T12:33:25.155Z,71.85
2018-06-10T12:34:25.170Z,70.68
2018-06-10T12:35:25.138Z,72.98
2018-06-10T12:36:25.129Z,71.56
2018-06-10T12:37:25.168Z,70.39
2018-06-10T12:38:25.119Z,69.35
2018-06-10T12:39:25.111Z,70.91
2018-06-10T12:40:25.102Z,69.65
2018-06-10T12:41:25.125Z,70.72
2018-06-10T12:42:25.098Z,69.55
2018-06-10T12:43:25.086Z,71.43
2018-06-10T12:44:25.076Z,67.57
2018-06-10T12:45:25.071Z,69.71
2018-06-10T12:46:25.070Z,70.43
2018-06-10T12:47:25.061Z,68.19
2018-06-10T12:48:25.056Z,65.11
2018-06-10T12:49:25.113Z,63.35
2018-06-10T12:50:25.046Z,64.45
2018-06-10T12:51:25.040Z,64.19
2018-06-10T12:52:25.033Z,61.46